AMX382 MMMX-MMSD
Flight info
| Callsign | AMX382 |
|---|---|
| Flight time | 1h 40m |
| Altitude | 36000 |
| Route | SEBON3B SEBON UT124 GDL UJ3 RADAP UT153 DEDKU UT14 TENAY TENAY1B |
| Aircraft | B38M/M-SDE1FGHILORVWXY/HB1 |
Departure
| Time | 2026-04-24 03:07 |
|---|---|
| Airport | Mexico City Benito Juárez International Airport (MMMX) |
Arrival
| Time | 2026-04-24 04:48 |
|---|---|
| Airport | Los Cabos International Airport (MMSD) |
| Time | Latitude | Longitude | Altitude | Speed | Heading |
|---|---|---|---|---|---|
| 2026-04-24 02:26 | 19.42241 | -99.07928 | 7305 ft | 0 kts | 209° |
| 2026-04-24 02:45 | 19.42252 | -99.07921 | 7305 ft | 3 kts | 216° |
| 2026-04-24 02:45 | 19.42266 | -99.07908 | 7305 ft | 3 kts | 237° |
| 2026-04-24 02:45 | 19.42273 | -99.07890 | 7305 ft | 3 kts | 272° |
| 2026-04-24 02:45 | 19.42268 | -99.07873 | 7305 ft | 2 kts | 308° |
| 2026-04-24 02:46 | 19.42264 | -99.07867 | 7305 ft | 0 kts | 309° |
| 2026-04-24 02:46 | 19.42263 | -99.07867 | 7305 ft | 0 kts | 309° |
| 2026-04-24 02:50 | 19.42264 | -99.07868 | 7305 ft | 1 kts | 309° |
| 2026-04-24 02:51 | 19.42286 | -99.07896 | 7305 ft | 9 kts | 310° |
| 2026-04-24 02:51 | 19.42335 | -99.07957 | 7305 ft | 12 kts | 310° |
| 2026-04-24 02:51 | 19.42390 | -99.08017 | 7305 ft | 11 kts | 324° |
| 2026-04-24 02:51 | 19.42458 | -99.08053 | 7305 ft | 11 kts | 354° |
| 2026-04-24 02:52 | 19.42509 | -99.08009 | 7305 ft | 10 kts | 59° |
| 2026-04-24 02:52 | 19.42543 | -99.07950 | 7305 ft | 9 kts | 59° |
| 2026-04-24 02:52 | 19.42577 | -99.07890 | 7305 ft | 10 kts | 59° |
| 2026-04-24 02:52 | 19.42621 | -99.07822 | 7305 ft | 13 kts | 36° |
| 2026-04-24 02:53 | 19.42700 | -99.07845 | 7305 ft | 14 kts | 324° |
| 2026-04-24 02:53 | 19.42807 | -99.07869 | 7305 ft | 19 kts | 23° |
| 2026-04-24 02:53 | 19.42892 | -99.07819 | 7305 ft | 11 kts | 32° |
| 2026-04-24 02:53 | 19.42957 | -99.07757 | 7305 ft | 14 kts | 47° |
| 2026-04-24 02:54 | 19.43023 | -99.07656 | 7305 ft | 20 kts | 58° |
| 2026-04-24 02:54 | 19.43099 | -99.07523 | 7305 ft | 21 kts | 59° |
| 2026-04-24 02:54 | 19.43174 | -99.07390 | 7305 ft | 21 kts | 59° |
| 2026-04-24 02:54 | 19.43244 | -99.07260 | 7305 ft | 20 kts | 69° |
| 2026-04-24 02:55 | 19.43268 | -99.07121 | 7305 ft | 19 kts | 77° |
| 2026-04-24 02:55 | 19.43328 | -99.06998 | 7305 ft | 18 kts | 58° |
| 2026-04-24 02:55 | 19.43392 | -99.06882 | 7305 ft | 18 kts | 60° |
| 2026-04-24 02:55 | 19.43446 | -99.06768 | 7305 ft | 17 kts | 49° |
| 2026-04-24 02:56 | 19.43544 | -99.06706 | 7305 ft | 16 kts | 29° |
| 2026-04-24 02:56 | 19.43619 | -99.06609 | 7305 ft | 19 kts | 61° |
| 2026-04-24 02:56 | 19.43692 | -99.06479 | 7305 ft | 23 kts | 59° |
| 2026-04-24 02:56 | 19.43781 | -99.06323 | 7305 ft | 27 kts | 59° |
| 2026-04-24 02:57 | 19.43883 | -99.06138 | 7305 ft | 31 kts | 60° |
| 2026-04-24 02:57 | 19.43973 | -99.05974 | 7305 ft | 22 kts | 59° |
| 2026-04-24 02:57 | 19.44026 | -99.05881 | 7305 ft | 10 kts | 52° |
| 2026-04-24 02:57 | 19.44044 | -99.05863 | 7305 ft | 0 kts | 36° |
| 2026-04-24 02:58 | 19.44052 | -99.05857 | 7305 ft | 4 kts | 32° |
| 2026-04-24 02:58 | 19.44094 | -99.05839 | 7305 ft | 9 kts | 11° |
| 2026-04-24 02:58 | 19.44118 | -99.05837 | 7305 ft | 0 kts | 4° |
| 2026-04-24 03:02 | 19.44121 | -99.05836 | 7305 ft | 0 kts | 4° |
| 2026-04-24 03:02 | 19.44122 | -99.05836 | 7305 ft | 0 kts | 4° |
| 2026-04-24 03:04 | 19.44124 | -99.05836 | 7305 ft | 2 kts | 4° |
| 2026-04-24 03:04 | 19.44145 | -99.05835 | 7305 ft | 8 kts | 4° |
| 2026-04-24 03:04 | 19.44242 | -99.05828 | 7304 ft | 19 kts | 3° |
| 2026-04-24 03:04 | 19.44397 | -99.05818 | 7305 ft | 24 kts | 4° |
| 2026-04-24 03:05 | 19.44462 | -99.05813 | 7305 ft | 0 kts | 4° |
| 2026-04-24 03:05 | 19.44470 | -99.05812 | 7305 ft | 4 kts | 4° |
| 2026-04-24 03:05 | 19.44532 | -99.05824 | 7305 ft | 14 kts | 324° |
| 2026-04-24 03:06 | 19.44506 | -99.05941 | 7304 ft | 23 kts | 239° |
| 2026-04-24 03:06 | 19.44316 | -99.06281 | 7304 ft | 84 kts | 239° |
| 2026-04-24 03:06 | 19.43919 | -99.06986 | 7307 ft | 138 kts | 239° |
| 2026-04-24 03:06 | 19.43346 | -99.08005 | 7311 ft | 182 kts | 239° |
| 2026-04-24 03:07 | 19.42673 | -99.09206 | 7587 ft | 197 kts | 239° |
| 2026-04-24 03:07 | 19.41984 | -99.10454 | 8359 ft | 189 kts | 240° |
| 2026-04-24 03:07 | 19.41299 | -99.11684 | 8839 ft | 202 kts | 239° |
| 2026-04-24 03:07 | 19.40560 | -99.12990 | 9287 ft | 214 kts | 239° |
| 2026-04-24 03:08 | 19.39766 | -99.14400 | 9513 ft | 235 kts | 240° |
| 2026-04-24 03:08 | 19.37988 | -99.17571 | 10347 ft | 262 kts | 240° |
| 2026-04-24 03:08 | 19.37299 | -99.19354 | 11074 ft | 261 kts | 263° |
| 2026-04-24 03:09 | 19.37431 | -99.21252 | 11723 ft | 262 kts | 291° |
| 2026-04-24 03:09 | 19.38361 | -99.22879 | 12464 ft | 260 kts | 315° |
| 2026-04-24 03:09 | 19.39746 | -99.24144 | 13081 ft | 266 kts | 320° |
| 2026-04-24 03:09 | 19.41176 | -99.25389 | 13787 ft | 266 kts | 320° |
| 2026-04-24 03:10 | 19.42607 | -99.26618 | 14412 ft | 270 kts | 321° |
| 2026-04-24 03:10 | 19.43975 | -99.28018 | 14853 ft | 282 kts | 302° |
| 2026-04-24 03:10 | 19.44651 | -99.30010 | 15131 ft | 298 kts | 276° |
| 2026-04-24 03:10 | 19.44535 | -99.32265 | 15384 ft | 317 kts | 262° |
| 2026-04-24 03:11 | 19.44213 | -99.34647 | 15579 ft | 336 kts | 264° |
| 2026-04-24 03:11 | 19.43915 | -99.37155 | 15855 ft | 350 kts | 264° |
| 2026-04-24 03:11 | 19.43616 | -99.39752 | 16293 ft | 357 kts | 264° |
| 2026-04-24 03:11 | 19.43311 | -99.42368 | 16944 ft | 359 kts | 264° |
| 2026-04-24 03:12 | 19.43004 | -99.45008 | 17476 ft | 363 kts | 264° |
| 2026-04-24 03:12 | 19.42693 | -99.47681 | 18046 ft | 366 kts | 264° |
| 2026-04-24 03:12 | 19.42383 | -99.50343 | 18580 ft | 370 kts | 264° |
| 2026-04-24 03:12 | 19.42066 | -99.53054 | 19116 ft | 372 kts | 264° |
| 2026-04-24 03:13 | 19.41746 | -99.55792 | 19634 ft | 375 kts | 264° |
| 2026-04-24 03:13 | 19.41422 | -99.58546 | 20153 ft | 378 kts | 264° |
| 2026-04-24 03:13 | 19.41098 | -99.61316 | 20661 ft | 380 kts | 265° |
| 2026-04-24 03:13 | 19.40770 | -99.64095 | 21139 ft | 382 kts | 265° |
| 2026-04-24 03:14 | 19.40441 | -99.66901 | 21583 ft | 385 kts | 265° |
| 2026-04-24 03:14 | 19.40107 | -99.69723 | 22043 ft | 386 kts | 265° |
| 2026-04-24 03:14 | 19.39773 | -99.72558 | 22474 ft | 389 kts | 265° |
| 2026-04-24 03:14 | 19.39440 | -99.75377 | 22890 ft | 391 kts | 265° |
| 2026-04-24 03:15 | 19.39100 | -99.78242 | 23306 ft | 393 kts | 265° |
| 2026-04-24 03:15 | 19.38758 | -99.81127 | 23698 ft | 395 kts | 265° |
| 2026-04-24 03:15 | 19.38414 | -99.84018 | 24085 ft | 397 kts | 265° |
| 2026-04-24 03:15 | 19.38067 | -99.86930 | 24459 ft | 399 kts | 265° |
| 2026-04-24 03:16 | 19.37719 | -99.89855 | 24819 ft | 402 kts | 265° |
| 2026-04-24 03:16 | 19.37368 | -99.92802 | 25177 ft | 404 kts | 265° |
| 2026-04-24 03:16 | 19.37014 | -99.95760 | 25552 ft | 406 kts | 265° |
| 2026-04-24 03:16 | 19.36657 | -99.98737 | 25891 ft | 408 kts | 265° |
| 2026-04-24 03:17 | 19.36299 | -100.01726 | 26225 ft | 410 kts | 265° |
| 2026-04-24 03:17 | 19.35937 | -100.04737 | 26557 ft | 413 kts | 265° |
| 2026-04-24 03:17 | 19.35572 | -100.07770 | 26882 ft | 415 kts | 265° |
| 2026-04-24 03:17 | 19.35220 | -100.10773 | 27204 ft | 417 kts | 268° |
| 2026-04-24 03:18 | 19.35359 | -100.13809 | 27533 ft | 412 kts | 284° |
| 2026-04-24 03:18 | 19.36167 | -100.16727 | 27778 ft | 414 kts | 289° |
| 2026-04-24 03:18 | 19.37060 | -100.19640 | 28034 ft | 416 kts | 290° |
| 2026-04-24 03:18 | 19.37985 | -100.22553 | 28302 ft | 419 kts | 290° |
| 2026-04-24 03:19 | 19.38935 | -100.25489 | 28535 ft | 422 kts | 290° |
| 2026-04-24 03:19 | 19.39900 | -100.28432 | 28852 ft | 423 kts | 290° |
| 2026-04-24 03:19 | 19.40871 | -100.31382 | 29135 ft | 425 kts | 290° |
| 2026-04-24 03:19 | 19.41850 | -100.34356 | 29424 ft | 427 kts | 290° |
| 2026-04-24 03:20 | 19.42818 | -100.37292 | 29671 ft | 429 kts | 290° |
| 2026-04-24 03:20 | 19.43804 | -100.40287 | 29946 ft | 431 kts | 291° |
| 2026-04-24 03:20 | 19.44795 | -100.43298 | 30213 ft | 432 kts | 290° |
| 2026-04-24 03:20 | 19.45784 | -100.46307 | 30450 ft | 434 kts | 290° |
| 2026-04-24 03:21 | 19.46781 | -100.49340 | 30705 ft | 436 kts | 290° |
| 2026-04-24 03:21 | 19.47780 | -100.52380 | 30949 ft | 437 kts | 290° |
| 2026-04-24 03:21 | 19.48779 | -100.55425 | 31192 ft | 439 kts | 290° |
| 2026-04-24 03:21 | 19.49784 | -100.58486 | 31393 ft | 441 kts | 290° |
| 2026-04-24 03:22 | 19.50794 | -100.61567 | 31634 ft | 442 kts | 290° |
| 2026-04-24 03:22 | 19.51804 | -100.64649 | 31868 ft | 443 kts | 290° |
| 2026-04-24 03:22 | 19.52817 | -100.67743 | 32129 ft | 444 kts | 290° |
| 2026-04-24 03:22 | 19.53828 | -100.70831 | 32436 ft | 443 kts | 290° |
| 2026-04-24 03:23 | 19.54861 | -100.73908 | 32754 ft | 442 kts | 291° |
| 2026-04-24 03:23 | 19.55897 | -100.76926 | 33097 ft | 441 kts | 291° |
| 2026-04-24 03:23 | 19.56940 | -100.79982 | 33427 ft | 439 kts | 291° |
| 2026-04-24 03:23 | 19.57978 | -100.83026 | 33741 ft | 438 kts | 291° |
| 2026-04-24 03:24 | 19.59014 | -100.86069 | 34088 ft | 437 kts | 291° |
| 2026-04-24 03:24 | 19.60043 | -100.89091 | 34346 ft | 436 kts | 291° |
| 2026-04-24 03:24 | 19.61073 | -100.92121 | 34623 ft | 435 kts | 291° |
| 2026-04-24 03:24 | 19.62100 | -100.95141 | 34881 ft | 435 kts | 291° |
| 2026-04-24 03:25 | 19.63127 | -100.98164 | 35095 ft | 436 kts | 291° |
| 2026-04-24 03:25 | 19.64155 | -101.01193 | 35331 ft | 435 kts | 291° |
| 2026-04-24 03:25 | 19.65178 | -101.04209 | 35572 ft | 435 kts | 291° |
| 2026-04-24 03:25 | 19.66189 | -101.07192 | 35803 ft | 434 kts | 291° |
| 2026-04-24 03:26 | 19.67209 | -101.10201 | 36029 ft | 433 kts | 291° |
| 2026-04-24 03:26 | 19.68227 | -101.13206 | 36207 ft | 433 kts | 291° |
| 2026-04-24 03:26 | 19.69248 | -101.16225 | 36213 ft | 436 kts | 290° |
| 2026-04-24 03:27 | 19.71314 | -101.22335 | 36211 ft | 441 kts | 290° |
| 2026-04-24 03:27 | 19.73398 | -101.28507 | 36207 ft | 446 kts | 290° |
| 2026-04-24 03:28 | 19.75500 | -101.34739 | 36191 ft | 450 kts | 290° |
| 2026-04-24 03:28 | 19.77594 | -101.40956 | 36195 ft | 449 kts | 290° |
| 2026-04-24 03:29 | 19.79694 | -101.47199 | 36191 ft | 448 kts | 290° |
| 2026-04-24 03:29 | 19.81793 | -101.53449 | 36181 ft | 449 kts | 290° |
| 2026-04-24 03:30 | 19.83891 | -101.59701 | 36177 ft | 448 kts | 290° |
| 2026-04-24 03:30 | 19.85977 | -101.65926 | 36174 ft | 447 kts | 290° |
| 2026-04-24 03:31 | 19.88049 | -101.72117 | 36166 ft | 447 kts | 290° |
| 2026-04-24 03:31 | 19.90130 | -101.78344 | 36158 ft | 447 kts | 290° |
| 2026-04-24 03:32 | 19.92207 | -101.84566 | 36159 ft | 446 kts | 290° |
| 2026-04-24 03:32 | 19.94281 | -101.90790 | 36152 ft | 446 kts | 290° |
| 2026-04-24 03:33 | 19.96352 | -101.97010 | 36158 ft | 446 kts | 290° |
| 2026-04-24 03:33 | 19.98421 | -102.03234 | 36161 ft | 446 kts | 290° |
| 2026-04-24 03:34 | 20.00489 | -102.09462 | 36126 ft | 446 kts | 290° |
| 2026-04-24 03:34 | 20.02554 | -102.15690 | 36127 ft | 446 kts | 290° |
| 2026-04-24 03:35 | 20.04604 | -102.21879 | 36126 ft | 446 kts | 290° |
| 2026-04-24 03:35 | 20.06669 | -102.28123 | 36132 ft | 446 kts | 290° |
| 2026-04-24 03:36 | 20.08729 | -102.34360 | 36128 ft | 446 kts | 290° |
| 2026-04-24 03:36 | 20.10784 | -102.40591 | 36122 ft | 446 kts | 290° |
| 2026-04-24 03:37 | 20.12838 | -102.46827 | 36128 ft | 446 kts | 290° |
| 2026-04-24 03:37 | 20.14880 | -102.53033 | 36131 ft | 446 kts | 290° |
| 2026-04-24 03:38 | 20.16932 | -102.59276 | 36126 ft | 446 kts | 290° |
| 2026-04-24 03:38 | 20.18982 | -102.65520 | 36141 ft | 446 kts | 290° |
| 2026-04-24 03:39 | 20.21438 | -102.71517 | 36157 ft | 444 kts | 299° |
| 2026-04-24 03:39 | 20.24443 | -102.77287 | 36129 ft | 444 kts | 298° |
| 2026-04-24 03:40 | 20.27445 | -102.83062 | 36146 ft | 446 kts | 298° |
| 2026-04-24 03:40 | 20.30448 | -102.88843 | 36146 ft | 446 kts | 298° |
| 2026-04-24 03:41 | 20.33624 | -102.94513 | 36182 ft | 447 kts | 301° |
| 2026-04-24 03:41 | 20.36863 | -103.00165 | 36149 ft | 446 kts | 301° |
| 2026-04-24 03:42 | 20.40066 | -103.05782 | 36167 ft | 447 kts | 301° |
| 2026-04-24 03:42 | 20.43291 | -103.11444 | 36174 ft | 446 kts | 301° |
| 2026-04-24 03:43 | 20.46512 | -103.17106 | 36167 ft | 446 kts | 301° |
| 2026-04-24 03:43 | 20.49728 | -103.22765 | 36171 ft | 446 kts | 301° |
| 2026-04-24 03:44 | 20.52943 | -103.28427 | 36176 ft | 446 kts | 301° |
| 2026-04-24 03:44 | 20.56141 | -103.34065 | 36175 ft | 446 kts | 301° |
| 2026-04-24 03:45 | 20.59349 | -103.39726 | 36176 ft | 446 kts | 301° |
| 2026-04-24 03:45 | 20.62563 | -103.45404 | 36176 ft | 446 kts | 301° |
| 2026-04-24 03:46 | 20.65776 | -103.51085 | 36174 ft | 446 kts | 301° |
| 2026-04-24 03:46 | 20.68965 | -103.56730 | 36165 ft | 446 kts | 301° |
| 2026-04-24 03:47 | 20.72166 | -103.62402 | 36163 ft | 446 kts | 300° |
| 2026-04-24 03:47 | 20.75371 | -103.68086 | 36162 ft | 446 kts | 300° |
| 2026-04-24 03:48 | 20.78568 | -103.73762 | 36158 ft | 446 kts | 300° |
| 2026-04-24 03:48 | 20.81764 | -103.79442 | 36148 ft | 446 kts | 300° |
| 2026-04-24 03:49 | 20.84958 | -103.85123 | 36147 ft | 445 kts | 300° |
| 2026-04-24 03:49 | 20.88145 | -103.90799 | 36131 ft | 445 kts | 300° |
| 2026-04-24 03:50 | 20.91335 | -103.96485 | 36126 ft | 445 kts | 300° |
| 2026-04-24 03:50 | 20.94518 | -104.02165 | 36125 ft | 445 kts | 300° |
| 2026-04-24 03:51 | 20.97687 | -104.07825 | 36112 ft | 446 kts | 300° |
| 2026-04-24 03:51 | 21.00337 | -104.12563 | 36107 ft | 446 kts | 300° |
| 2026-04-24 03:52 | 21.03522 | -104.18262 | 36103 ft | 446 kts | 300° |
| 2026-04-24 03:52 | 21.06704 | -104.23963 | 36091 ft | 446 kts | 300° |
| 2026-04-24 03:53 | 21.09880 | -104.29657 | 36097 ft | 445 kts | 300° |
| 2026-04-24 03:53 | 21.13053 | -104.35352 | 36085 ft | 444 kts | 300° |
| 2026-04-24 03:54 | 21.16223 | -104.41049 | 36084 ft | 445 kts | 300° |
| 2026-04-24 03:54 | 21.19376 | -104.46721 | 36074 ft | 445 kts | 300° |
| 2026-04-24 03:55 | 21.22541 | -104.52419 | 36078 ft | 445 kts | 300° |
| 2026-04-24 03:55 | 21.25705 | -104.58121 | 36086 ft | 444 kts | 300° |
| 2026-04-24 03:56 | 21.28841 | -104.63781 | 36084 ft | 444 kts | 300° |
| 2026-04-24 03:56 | 21.32012 | -104.69508 | 36079 ft | 444 kts | 300° |
| 2026-04-24 03:57 | 21.35145 | -104.75172 | 36084 ft | 444 kts | 300° |
| 2026-04-24 03:57 | 21.38295 | -104.80873 | 36095 ft | 444 kts | 300° |
| 2026-04-24 03:58 | 21.41443 | -104.86577 | 36089 ft | 444 kts | 299° |
| 2026-04-24 03:58 | 21.44593 | -104.92290 | 36090 ft | 444 kts | 299° |
| 2026-04-24 03:59 | 21.47739 | -104.98002 | 36092 ft | 444 kts | 299° |
| 2026-04-24 03:59 | 21.50886 | -105.03722 | 36090 ft | 444 kts | 299° |
| 2026-04-24 04:00 | 21.54010 | -105.09405 | 36094 ft | 444 kts | 299° |
| 2026-04-24 04:00 | 21.57156 | -105.15136 | 36081 ft | 444 kts | 299° |
| 2026-04-24 04:01 | 21.60295 | -105.20858 | 36082 ft | 444 kts | 299° |
| 2026-04-24 04:01 | 21.63431 | -105.26583 | 36074 ft | 445 kts | 299° |
| 2026-04-24 04:02 | 21.66570 | -105.32318 | 36090 ft | 445 kts | 299° |
| 2026-04-24 04:02 | 21.69713 | -105.38065 | 36092 ft | 445 kts | 299° |
| 2026-04-24 04:03 | 21.72829 | -105.43771 | 36087 ft | 445 kts | 299° |
| 2026-04-24 04:03 | 21.75617 | -105.49674 | 36070 ft | 440 kts | 285° |
| 2026-04-24 04:04 | 21.77442 | -105.55989 | 36065 ft | 442 kts | 287° |
| 2026-04-24 04:04 | 21.79279 | -105.62312 | 36081 ft | 443 kts | 286° |
| 2026-04-24 04:05 | 21.81098 | -105.68630 | 36081 ft | 443 kts | 286° |
| 2026-04-24 04:05 | 21.82918 | -105.74962 | 36074 ft | 442 kts | 286° |
| 2026-04-24 04:06 | 21.84719 | -105.81239 | 36070 ft | 441 kts | 286° |
| 2026-04-24 04:06 | 21.86529 | -105.87560 | 36073 ft | 442 kts | 286° |
| 2026-04-24 04:07 | 21.88338 | -105.93882 | 36067 ft | 441 kts | 286° |
| 2026-04-24 04:07 | 21.90143 | -106.00205 | 36066 ft | 442 kts | 286° |
| 2026-04-24 04:08 | 21.91948 | -106.06538 | 36061 ft | 441 kts | 286° |
| 2026-04-24 04:08 | 21.93736 | -106.12818 | 36049 ft | 441 kts | 286° |
| 2026-04-24 04:09 | 21.95534 | -106.19144 | 36011 ft | 441 kts | 286° |
| 2026-04-24 04:09 | 21.97330 | -106.25476 | 36007 ft | 442 kts | 286° |
| 2026-04-24 04:10 | 21.99123 | -106.31808 | 35996 ft | 442 kts | 286° |
| 2026-04-24 04:10 | 22.00916 | -106.38148 | 35993 ft | 442 kts | 286° |
| 2026-04-24 04:11 | 22.03586 | -106.47607 | 35980 ft | 441 kts | 286° |
| 2026-04-24 04:11 | 22.05357 | -106.53893 | 35991 ft | 432 kts | 286° |
| 2026-04-24 04:12 | 22.07079 | -106.60011 | 35979 ft | 423 kts | 285° |
| 2026-04-24 04:12 | 22.09116 | -106.65962 | 36000 ft | 424 kts | 290° |
| 2026-04-24 04:13 | 22.11237 | -106.71848 | 35969 ft | 423 kts | 289° |
| 2026-04-24 04:13 | 22.13351 | -106.77785 | 35970 ft | 423 kts | 289° |
| 2026-04-24 04:14 | 22.15459 | -106.83717 | 35971 ft | 423 kts | 289° |
| 2026-04-24 04:14 | 22.17563 | -106.89651 | 35967 ft | 423 kts | 289° |
| 2026-04-24 04:15 | 22.19655 | -106.95556 | 35971 ft | 423 kts | 289° |
| 2026-04-24 04:15 | 22.21756 | -107.01492 | 35970 ft | 422 kts | 289° |
| 2026-04-24 04:16 | 22.23838 | -107.07386 | 35972 ft | 423 kts | 289° |
| 2026-04-24 04:16 | 22.25929 | -107.13312 | 35970 ft | 422 kts | 289° |
| 2026-04-24 04:17 | 22.28019 | -107.19243 | 35970 ft | 423 kts | 289° |
| 2026-04-24 04:17 | 22.30107 | -107.25176 | 35971 ft | 423 kts | 289° |
| 2026-04-24 04:18 | 22.32196 | -107.31119 | 35973 ft | 424 kts | 289° |
| 2026-04-24 04:18 | 22.34291 | -107.37087 | 35977 ft | 424 kts | 289° |
| 2026-04-24 04:19 | 22.36378 | -107.43041 | 35994 ft | 424 kts | 289° |
| 2026-04-24 04:19 | 22.38462 | -107.48995 | 35991 ft | 424 kts | 289° |
| 2026-04-24 04:20 | 22.40545 | -107.54953 | 35991 ft | 424 kts | 289° |
| 2026-04-24 04:20 | 22.41578 | -107.57908 | 35866 ft | 413 kts | 289° |
| 2026-04-24 04:20 | 22.42578 | -107.60774 | 35717 ft | 401 kts | 289° |
| 2026-04-24 04:21 | 22.43546 | -107.63549 | 35544 ft | 390 kts | 289° |
| 2026-04-24 04:21 | 22.44498 | -107.66282 | 35085 ft | 389 kts | 289° |
| 2026-04-24 04:21 | 22.45458 | -107.69038 | 34559 ft | 393 kts | 289° |
| 2026-04-24 04:21 | 22.46415 | -107.71786 | 34058 ft | 396 kts | 289° |
| 2026-04-24 04:22 | 22.47382 | -107.74566 | 33580 ft | 394 kts | 289° |
| 2026-04-24 04:22 | 22.48345 | -107.77336 | 33105 ft | 392 kts | 289° |
| 2026-04-24 04:22 | 22.49299 | -107.80080 | 32634 ft | 389 kts | 289° |
| 2026-04-24 04:22 | 22.50245 | -107.82804 | 32160 ft | 386 kts | 289° |
| 2026-04-24 04:23 | 22.51186 | -107.85518 | 31696 ft | 384 kts | 289° |
| 2026-04-24 04:23 | 22.52121 | -107.88212 | 31239 ft | 381 kts | 289° |
| 2026-04-24 04:23 | 22.53048 | -107.90886 | 30786 ft | 378 kts | 289° |
| 2026-04-24 04:23 | 22.53964 | -107.93533 | 30353 ft | 375 kts | 289° |
| 2026-04-24 04:24 | 22.54875 | -107.96164 | 29925 ft | 372 kts | 289° |
| 2026-04-24 04:24 | 22.55782 | -107.98784 | 29499 ft | 369 kts | 289° |
| 2026-04-24 04:24 | 22.56677 | -108.01374 | 29091 ft | 366 kts | 289° |
| 2026-04-24 04:24 | 22.57555 | -108.03913 | 28693 ft | 363 kts | 289° |
| 2026-04-24 04:25 | 22.58435 | -108.06460 | 28294 ft | 360 kts | 289° |
| 2026-04-24 04:25 | 22.59306 | -108.08986 | 27899 ft | 357 kts | 289° |
| 2026-04-24 04:25 | 22.60174 | -108.11500 | 27506 ft | 354 kts | 289° |
| 2026-04-24 04:25 | 22.61030 | -108.13985 | 27125 ft | 351 kts | 289° |
| 2026-04-24 04:26 | 22.61880 | -108.16452 | 26739 ft | 348 kts | 289° |
| 2026-04-24 04:26 | 22.62722 | -108.18896 | 26374 ft | 345 kts | 289° |
| 2026-04-24 04:26 | 22.63559 | -108.21326 | 26009 ft | 342 kts | 289° |
| 2026-04-24 04:26 | 22.64384 | -108.23725 | 25647 ft | 339 kts | 289° |
| 2026-04-24 04:27 | 22.65205 | -108.26115 | 25290 ft | 336 kts | 289° |
| 2026-04-24 04:27 | 22.66023 | -108.28495 | 24938 ft | 340 kts | 289° |
| 2026-04-24 04:27 | 22.66842 | -108.30880 | 24573 ft | 345 kts | 289° |
| 2026-04-24 04:27 | 22.67684 | -108.33330 | 24215 ft | 347 kts | 290° |
| 2026-04-24 04:28 | 22.68523 | -108.35776 | 23862 ft | 346 kts | 290° |
| 2026-04-24 04:28 | 22.69359 | -108.38213 | 23506 ft | 345 kts | 290° |
| 2026-04-24 04:28 | 22.70196 | -108.40655 | 23148 ft | 343 kts | 290° |
| 2026-04-24 04:28 | 22.71026 | -108.43077 | 22795 ft | 342 kts | 290° |
| 2026-04-24 04:29 | 22.71850 | -108.45485 | 22444 ft | 340 kts | 290° |
| 2026-04-24 04:29 | 22.72672 | -108.47888 | 22096 ft | 339 kts | 290° |
| 2026-04-24 04:29 | 22.73489 | -108.50276 | 21750 ft | 337 kts | 290° |
| 2026-04-24 04:29 | 22.74301 | -108.52650 | 21403 ft | 335 kts | 290° |
| 2026-04-24 04:30 | 22.75101 | -108.54995 | 21018 ft | 334 kts | 290° |
| 2026-04-24 04:30 | 22.75904 | -108.57345 | 20685 ft | 331 kts | 290° |
| 2026-04-24 04:30 | 22.76700 | -108.59674 | 20356 ft | 327 kts | 290° |
| 2026-04-24 04:30 | 22.77487 | -108.61978 | 20036 ft | 324 kts | 290° |
| 2026-04-24 04:31 | 22.78266 | -108.64261 | 19704 ft | 321 kts | 290° |
| 2026-04-24 04:31 | 22.79037 | -108.66522 | 19378 ft | 318 kts | 290° |
| 2026-04-24 04:31 | 22.79793 | -108.68739 | 19053 ft | 315 kts | 291° |
| 2026-04-24 04:31 | 22.80557 | -108.70981 | 18742 ft | 312 kts | 291° |
| 2026-04-24 04:32 | 22.81294 | -108.73145 | 18430 ft | 309 kts | 291° |
| 2026-04-24 04:32 | 22.82042 | -108.75342 | 18107 ft | 313 kts | 291° |
| 2026-04-24 04:32 | 22.82800 | -108.77569 | 17789 ft | 318 kts | 291° |
| 2026-04-24 04:32 | 22.83568 | -108.79828 | 17467 ft | 318 kts | 291° |
| 2026-04-24 04:33 | 22.84332 | -108.82078 | 17149 ft | 317 kts | 291° |
| 2026-04-24 04:33 | 22.85089 | -108.84306 | 16823 ft | 314 kts | 291° |
| 2026-04-24 04:33 | 22.85841 | -108.86520 | 16498 ft | 311 kts | 290° |
| 2026-04-24 04:33 | 22.86586 | -108.88714 | 16137 ft | 309 kts | 290° |
| 2026-04-24 04:34 | 22.87323 | -108.90886 | 15834 ft | 306 kts | 290° |
| 2026-04-24 04:34 | 22.88051 | -108.93035 | 15527 ft | 302 kts | 290° |
| 2026-04-24 04:34 | 22.88773 | -108.95166 | 15225 ft | 299 kts | 290° |
| 2026-04-24 04:34 | 22.89488 | -108.97275 | 14924 ft | 296 kts | 290° |
| 2026-04-24 04:35 | 22.90193 | -108.99358 | 14610 ft | 292 kts | 290° |
| 2026-04-24 04:35 | 22.90887 | -109.01408 | 14310 ft | 288 kts | 290° |
| 2026-04-24 04:35 | 22.91576 | -109.03445 | 13982 ft | 295 kts | 290° |
| 2026-04-24 04:35 | 22.92287 | -109.05549 | 13616 ft | 298 kts | 290° |
| 2026-04-24 04:36 | 22.93002 | -109.07665 | 13295 ft | 299 kts | 290° |
| 2026-04-24 04:36 | 22.93717 | -109.09780 | 12978 ft | 299 kts | 289° |
| 2026-04-24 04:36 | 22.94430 | -109.11893 | 12629 ft | 297 kts | 289° |
| 2026-04-24 04:36 | 22.94909 | -109.13311 | 12393 ft | 296 kts | 289° |
| 2026-04-24 04:37 | 22.95608 | -109.15385 | 12052 ft | 295 kts | 289° |
| 2026-04-24 04:37 | 22.96311 | -109.17469 | 11704 ft | 294 kts | 289° |
| 2026-04-24 04:37 | 22.97011 | -109.19547 | 11352 ft | 292 kts | 289° |
| 2026-04-24 04:37 | 22.97709 | -109.21618 | 11013 ft | 291 kts | 289° |
| 2026-04-24 04:38 | 22.98403 | -109.23680 | 10662 ft | 290 kts | 289° |
| 2026-04-24 04:38 | 22.99092 | -109.25727 | 10331 ft | 288 kts | 289° |
| 2026-04-24 04:38 | 22.99778 | -109.27767 | 9990 ft | 287 kts | 289° |
| 2026-04-24 04:38 | 23.00299 | -109.29855 | 9604 ft | 287 kts | 272° |
| 2026-04-24 04:39 | 23.00187 | -109.32015 | 9245 ft | 286 kts | 265° |
| 2026-04-24 04:39 | 23.00046 | -109.34163 | 8929 ft | 284 kts | 266° |
| 2026-04-24 04:39 | 22.99900 | -109.36298 | 8604 ft | 283 kts | 265° |
| 2026-04-24 04:39 | 22.99751 | -109.38420 | 8278 ft | 281 kts | 265° |
| 2026-04-24 04:40 | 22.99603 | -109.40503 | 7950 ft | 280 kts | 265° |
| 2026-04-24 04:40 | 22.99451 | -109.42605 | 7621 ft | 278 kts | 265° |
| 2026-04-24 04:40 | 22.99300 | -109.44697 | 7294 ft | 278 kts | 266° |
| 2026-04-24 04:40 | 22.99150 | -109.46786 | 6969 ft | 277 kts | 266° |
| 2026-04-24 04:41 | 22.98998 | -109.48867 | 6634 ft | 276 kts | 266° |
| 2026-04-24 04:41 | 22.98846 | -109.50944 | 6315 ft | 275 kts | 266° |
| 2026-04-24 04:41 | 22.98697 | -109.52994 | 6037 ft | 269 kts | 266° |
| 2026-04-24 04:41 | 22.98549 | -109.55004 | 5684 ft | 265 kts | 266° |
| 2026-04-24 04:42 | 22.98406 | -109.56965 | 5358 ft | 256 kts | 266° |
| 2026-04-24 04:42 | 22.98268 | -109.58851 | 5057 ft | 245 kts | 266° |
| 2026-04-24 04:42 | 22.98135 | -109.60655 | 4768 ft | 235 kts | 266° |
| 2026-04-24 04:42 | 22.97973 | -109.62375 | 4499 ft | 230 kts | 265° |
| 2026-04-24 04:43 | 22.97808 | -109.64089 | 4219 ft | 227 kts | 265° |
| 2026-04-24 04:43 | 22.97645 | -109.65780 | 3976 ft | 222 kts | 265° |
| 2026-04-24 04:43 | 22.97490 | -109.67420 | 3727 ft | 215 kts | 266° |
| 2026-04-24 04:43 | 22.97744 | -109.68973 | 3384 ft | 210 kts | 300° |
| 2026-04-24 04:44 | 22.98776 | -109.69999 | 3107 ft | 198 kts | 335° |
| 2026-04-24 04:44 | 23.00082 | -109.70307 | 2877 ft | 187 kts | 351° |
| 2026-04-24 04:44 | 23.01348 | -109.70478 | 2693 ft | 178 kts | 351° |
| 2026-04-24 04:44 | 23.02561 | -109.70630 | 2508 ft | 174 kts | 352° |
| 2026-04-24 04:45 | 23.03767 | -109.70771 | 2323 ft | 174 kts | 352° |
| 2026-04-24 04:45 | 23.04941 | -109.70906 | 2127 ft | 163 kts | 352° |
| 2026-04-24 04:45 | 23.06044 | -109.71030 | 1879 ft | 160 kts | 353° |
| 2026-04-24 04:45 | 23.07161 | -109.71129 | 1615 ft | 159 kts | 355° |
| 2026-04-24 04:46 | 23.08245 | -109.71237 | 1415 ft | 158 kts | 354° |
| 2026-04-24 04:46 | 23.09350 | -109.71357 | 1265 ft | 159 kts | 353° |
| 2026-04-24 04:46 | 23.10448 | -109.71488 | 1085 ft | 159 kts | 352° |
| 2026-04-24 04:46 | 23.11542 | -109.71648 | 841 ft | 158 kts | 352° |
| 2026-04-24 04:47 | 23.12631 | -109.71784 | 623 ft | 157 kts | 355° |
| 2026-04-24 04:47 | 23.13714 | -109.71900 | 407 ft | 156 kts | 353° |
| 2026-04-24 04:47 | 23.14723 | -109.72018 | 359 ft | 122 kts | 353° |
| 2026-04-24 04:47 | 23.15341 | -109.72092 | 367 ft | 70 kts | 353° |
| 2026-04-24 04:48 | 23.15774 | -109.72134 | 374 ft | 42 kts | 5° |
| 2026-04-24 04:48 | 23.15995 | -109.72046 | 380 ft | 32 kts | 23° |
| 2026-04-24 04:48 | 23.16128 | -109.71965 | 382 ft | 11 kts | 50° |
| 2026-04-24 04:48 | 23.16149 | -109.71898 | 383 ft | 10 kts | 76° |
| 2026-04-24 04:49 | 23.16161 | -109.71844 | 383 ft | 0 kts | 83° |